Dati Storici

Data ora Umidita' aria (%) Temperatura aria (°C) Rad globale (W/m²) Gonioanemometro (°) Tacoanemometro (m/s) Pioggia (mm)
07-11-2012 18:10 61.8 % 12.391 1.393 198.335 1.176 0
07-11-2012 18:00 61.8 % 12.49 2.679 200.668 1.166 0
07-11-2012 17:50 61.6 % 12.559 5.498 199.397 0.485 0
07-11-2012 17:40 61.7 % 12.581 9.656 152.878 0.563 0
07-11-2012 17:30 60.5 % 13.028 23.233 160.137 0.704 0
07-11-2012 17:20 58.5 % 13.32 37.041 157.871 0.641 0
07-11-2012 17:10 54 % 13.587 30.606 168.765 0.826 0
07-11-2012 17:00 51.9 % 13.761 47.667 199.458 1.795 0
07-11-2012 16:50 50.7 % 14.156 96.844 219.535 0.956 0
07-11-2012 16:40 51.1 % 13.897 122.321 184.642 2.692 0
07-11-2012 16:30 50.5 % 14.206 143.536 205.367 2.633 0
07-11-2012 16:20 49.6 % 14.063 167.622 122.924 1.231 0
07-11-2012 16:10 50.8 % 14.443 190.757 158.41 1.709 0
07-11-2012 16:00 50.1 % 14.838 214.738 204.529 0.686 0
07-11-2012 15:50 51.3 % 14.65 237.416 145.331 1.619 0
07-11-2012 15:40 51.1 % 14.4 260.491 116.225 1.132 0
07-11-2012 15:30 50.3 % 14.297 280.104 73.856 1 0
07-11-2012 15:20 50.2 % 14.667 300.849 121.873 1.091 0
07-11-2012 15:10 50.1 % 14.63 313.317 133.872 1.116 0
07-11-2012 15:00 49.9 % 14.768 338.204 181.907 1.231 0

I dati sono presentati in modo automatico a scopo informativo. In seguito a verifica i dati possono subire modifiche o essere invalidati e non riportati negli archivi definitivi.